sensor_id;sensor_type;location;lat;lon;timestamp;P1;durP1;ratioP1;P2;durP2;ratioP2
47760;SDS011;33524;55.434;38.520;2023-08-30T00:02:13;15.75;;;10.10;;
47760;SDS011;33524;55.434;38.520;2023-08-30T00:04:42;15.75;;;10.80;;
47760;SDS011;33524;55.434;38.520;2023-08-30T00:07:09;14.65;;;10.65;;
47760;SDS011;33524;55.434;38.520;2023-08-30T00:09:38;16.40;;;10.48;;
47760;SDS011;33524;55.434;38.520;2023-08-30T00:12:06;13.50;;;10.07;;
47760;SDS011;33524;55.434;38.520;2023-08-30T00:14:34;15.82;;;11.12;;
47760;SDS011;33524;55.434;38.520;2023-08-30T00:17:03;17.02;;;11.20;;
47760;SDS011;33524;55.434;38.520;2023-08-30T00:19:32;17.52;;;10.98;;
47760;SDS011;33524;55.434;38.520;2023-08-30T00:22:00;16.08;;;11.15;;
47760;SDS011;33524;55.434;38.520;2023-08-30T00:24:28;14.93;;;10.57;;
47760;SDS011;33524;55.434;38.520;2023-08-30T00:26:56;16.08;;;10.38;;
47760;SDS011;33524;55.434;38.520;2023-08-30T00:29:25;17.45;;;11.95;;
47760;SDS011;33524;55.434;38.520;2023-08-30T00:31:53;14.63;;;10.52;;
47760;SDS011;33524;55.434;38.520;2023-08-30T00:34:22;14.90;;;10.23;;
47760;SDS011;33524;55.434;38.520;2023-08-30T00:36:50;21.67;;;11.35;;
47760;SDS011;33524;55.434;38.520;2023-08-30T00:39:18;15.73;;;11.82;;
47760;SDS011;33524;55.434;38.520;2023-08-30T00:41:47;16.48;;;10.98;;
47760;SDS011;33524;55.434;38.520;2023-08-30T00:44:15;19.95;;;11.40;;
47760;SDS011;33524;55.434;38.520;2023-08-30T00:46:43;17.55;;;11.55;;
47760;SDS011;33524;55.434;38.520;2023-08-30T00:49:11;20.27;;;12.77;;
47760;SDS011;33524;55.434;38.520;2023-08-30T00:51:40;20.45;;;14.40;;
47760;SDS011;33524;55.434;38.520;2023-08-30T00:54:08;16.80;;;12.05;;
47760;SDS011;33524;55.434;38.520;2023-08-30T00:56:36;22.17;;;12.57;;
47760;SDS011;33524;55.434;38.520;2023-08-30T00:59:05;19.23;;;12.45;;
47760;SDS011;33524;55.434;38.520;2023-08-30T01:01:32;18.62;;;13.25;;
47760;SDS011;33524;55.434;38.520;2023-08-30T01:04:01;19.35;;;12.25;;
47760;SDS011;33524;55.434;38.520;2023-08-30T01:06:29;17.75;;;12.70;;
47760;SDS011;33524;55.434;38.520;2023-08-30T01:08:58;21.87;;;13.75;;
47760;SDS011;33524;55.434;38.520;2023-08-30T01:11:36;27.08;;;14.13;;
47760;SDS011;33524;55.434;38.520;2023-08-30T01:14:12;27.67;;;13.65;;
47760;SDS011;33524;55.434;38.520;2023-08-30T01:16:46;21.35;;;13.02;;
47760;SDS011;33524;55.434;38.520;2023-08-30T01:22:17;25.58;;;13.18;;
47760;SDS011;33524;55.434;38.520;2023-08-30T01:27:34;19.85;;;13.62;;
47760;SDS011;33524;55.434;38.520;2023-08-30T01:30:05;16.33;;;12.70;;
47760;SDS011;33524;55.434;38.520;2023-08-30T01:32:36;19.58;;;12.93;;
47760;SDS011;33524;55.434;38.520;2023-08-30T01:35:05;22.58;;;14.50;;
47760;SDS011;33524;55.434;38.520;2023-08-30T01:37:35;22.70;;;14.40;;
47760;SDS011;33524;55.434;38.520;2023-08-30T01:40:06;20.88;;;13.77;;
47760;SDS011;33524;55.434;38.520;2023-08-30T01:42:35;25.60;;;14.48;;
47760;SDS011;33524;55.434;38.520;2023-08-30T01:45:04;19.25;;;12.80;;
47760;SDS011;33524;55.434;38.520;2023-08-30T01:47:39;18.40;;;13.27;;
47760;SDS011;33524;55.434;38.520;2023-08-30T01:50:10;22.77;;;13.27;;
47760;SDS011;33524;55.434;38.520;2023-08-30T01:52:39;18.98;;;12.82;;
47760;SDS011;33524;55.434;38.520;2023-08-30T01:55:08;20.25;;;13.30;;
47760;SDS011;33524;55.434;38.520;2023-08-30T01:57:39;20.35;;;12.95;;
47760;SDS011;33524;55.434;38.520;2023-08-30T02:00:08;24.48;;;13.90;;
47760;SDS011;33524;55.434;38.520;2023-08-30T02:02:42;20.65;;;12.90;;
47760;SDS011;33524;55.434;38.520;2023-08-30T02:05:11;22.17;;;13.55;;
47760;SDS011;33524;55.434;38.520;2023-08-30T02:07:43;22.92;;;14.10;;
47760;SDS011;33524;55.434;38.520;2023-08-30T02:10:22;23.40;;;14.48;;
47760;SDS011;33524;55.434;38.520;2023-08-30T02:12:55;27.67;;;15.15;;
47760;SDS011;33524;55.434;38.520;2023-08-30T02:15:27;26.52;;;15.75;;
47760;SDS011;33524;55.434;38.520;2023-08-30T02:17:58;25.92;;;13.82;;
47760;SDS011;33524;55.434;38.520;2023-08-30T02:20:27;29.10;;;16.25;;
47760;SDS011;33524;55.434;38.520;2023-08-30T02:22:59;24.30;;;15.70;;
47760;SDS011;33524;55.434;38.520;2023-08-30T02:25:41;26.25;;;17.08;;
47760;SDS011;33524;55.434;38.520;2023-08-30T02:28:10;28.42;;;18.73;;
47760;SDS011;33524;55.434;38.520;2023-08-30T02:30:39;24.90;;;17.27;;
47760;SDS011;33524;55.434;38.520;2023-08-30T02:33:07;36.70;;;21.37;;
47760;SDS011;33524;55.434;38.520;2023-08-30T02:35:37;25.55;;;17.67;;
47760;SDS011;33524;55.434;38.520;2023-08-30T02:38:05;32.22;;;20.25;;
47760;SDS011;33524;55.434;38.520;2023-08-30T02:40:35;35.03;;;19.92;;
47760;SDS011;33524;55.434;38.520;2023-08-30T02:43:03;35.88;;;22.30;;
47760;SDS011;33524;55.434;38.520;2023-08-30T02:45:31;35.67;;;22.83;;
47760;SDS011;33524;55.434;38.520;2023-08-30T02:48:00;39.83;;;23.90;;
47760;SDS011;33524;55.434;38.520;2023-08-30T02:50:28;39.72;;;24.60;;
47760;SDS011;33524;55.434;38.520;2023-08-30T02:52:56;37.53;;;23.67;;
47760;SDS011;33524;55.434;38.520;2023-08-30T02:55:24;40.38;;;24.40;;
47760;SDS011;33524;55.434;38.520;2023-08-30T02:57:52;40.45;;;25.00;;
47760;SDS011;33524;55.434;38.520;2023-08-30T03:00:20;36.25;;;23.50;;
47760;SDS011;33524;55.434;38.520;2023-08-30T03:02:49;42.20;;;24.52;;
47760;SDS011;33524;55.434;38.520;2023-08-30T03:05:18;35.50;;;23.23;;
47760;SDS011;33524;55.434;38.520;2023-08-30T03:07:46;37.72;;;23.62;;
47760;SDS011;33524;55.434;38.520;2023-08-30T03:10:15;35.75;;;21.62;;
47760;SDS011;33524;55.434;38.520;2023-08-30T03:12:45;32.95;;;18.85;;
47760;SDS011;33524;55.434;38.520;2023-08-30T03:15:13;29.05;;;19.37;;
47760;SDS011;33524;55.434;38.520;2023-08-30T03:17:41;30.88;;;18.30;;
47760;SDS011;33524;55.434;38.520;2023-08-30T03:20:09;34.13;;;19.65;;
47760;SDS011;33524;55.434;38.520;2023-08-30T03:22:37;31.75;;;19.20;;
47760;SDS011;33524;55.434;38.520;2023-08-30T03:25:07;37.75;;;19.00;;
47760;SDS011;33524;55.434;38.520;2023-08-30T03:27:38;31.45;;;19.80;;
47760;SDS011;33524;55.434;38.520;2023-08-30T03:30:07;32.05;;;20.85;;
47760;SDS011;33524;55.434;38.520;2023-08-30T03:32:36;30.62;;;19.45;;
47760;SDS011;33524;55.434;38.520;2023-08-30T03:35:05;35.92;;;20.50;;
47760;SDS011;33524;55.434;38.520;2023-08-30T03:37:34;31.92;;;19.92;;
47760;SDS011;33524;55.434;38.520;2023-08-30T03:40:02;37.05;;;21.08;;
47760;SDS011;33524;55.434;38.520;2023-08-30T03:42:32;40.33;;;21.83;;
47760;SDS011;33524;55.434;38.520;2023-08-30T03:45:01;40.10;;;20.52;;
47760;SDS011;33524;55.434;38.520;2023-08-30T03:47:30;41.03;;;22.77;;
47760;SDS011;33524;55.434;38.520;2023-08-30T03:49:58;57.22;;;26.17;;
47760;SDS011;33524;55.434;38.520;2023-08-30T03:52:27;44.88;;;23.50;;
47760;SDS011;33524;55.434;38.520;2023-08-30T03:54:55;49.83;;;24.87;;
47760;SDS011;33524;55.434;38.520;2023-08-30T03:57:23;47.35;;;23.83;;
47760;SDS011;33524;55.434;38.520;2023-08-30T03:59:51;51.83;;;23.92;;
47760;SDS011;33524;55.434;38.520;2023-08-30T04:02:19;47.53;;;23.38;;
47760;SDS011;33524;55.434;38.520;2023-08-30T04:04:48;44.40;;;23.65;;
47760;SDS011;33524;55.434;38.520;2023-08-30T04:07:16;42.88;;;21.55;;
47760;SDS011;33524;55.434;38.520;2023-08-30T04:09:44;49.35;;;24.42;;
47760;SDS011;33524;55.434;38.520;2023-08-30T04:12:12;39.38;;;21.35;;
47760;SDS011;33524;55.434;38.520;2023-08-30T04:14:41;48.55;;;22.45;;
47760;SDS011;33524;55.434;38.520;2023-08-30T04:17:09;40.78;;;21.87;;
47760;SDS011;33524;55.434;38.520;2023-08-30T04:19:37;41.85;;;23.77;;
47760;SDS011;33524;55.434;38.520;2023-08-30T04:22:08;37.90;;;23.35;;
47760;SDS011;33524;55.434;38.520;2023-08-30T04:24:35;40.53;;;22.25;;
47760;SDS011;33524;55.434;38.520;2023-08-30T04:27:04;34.72;;;21.55;;
47760;SDS011;33524;55.434;38.520;2023-08-30T04:29:32;38.75;;;22.02;;
47760;SDS011;33524;55.434;38.520;2023-08-30T04:32:00;34.17;;;20.37;;
47760;SDS011;33524;55.434;38.520;2023-08-30T04:34:30;29.58;;;19.02;;
47760;SDS011;33524;55.434;38.520;2023-08-30T04:36:58;32.80;;;19.90;;
47760;SDS011;33524;55.434;38.520;2023-08-30T04:39:26;30.00;;;20.58;;
47760;SDS011;33524;55.434;38.520;2023-08-30T04:41:54;32.40;;;20.67;;
47760;SDS011;33524;55.434;38.520;2023-08-30T04:44:24;31.95;;;18.35;;
47760;SDS011;33524;55.434;38.520;2023-08-30T04:46:52;29.25;;;19.17;;
47760;SDS011;33524;55.434;38.520;2023-08-30T04:49:22;26.90;;;18.65;;
47760;SDS011;33524;55.434;38.520;2023-08-30T04:51:52;32.10;;;17.23;;
47760;SDS011;33524;55.434;38.520;2023-08-30T04:54:20;22.85;;;16.58;;
47760;SDS011;33524;55.434;38.520;2023-08-30T04:56:49;21.85;;;14.98;;
47760;SDS011;33524;55.434;38.520;2023-08-30T04:59:17;21.55;;;15.07;;
47760;SDS011;33524;55.434;38.520;2023-08-30T05:01:45;23.52;;;15.93;;
47760;SDS011;33524;55.434;38.520;2023-08-30T05:04:15;23.48;;;14.40;;
47760;SDS011;33524;55.434;38.520;2023-08-30T05:06:43;18.67;;;12.15;;
47760;SDS011;33524;55.434;38.520;2023-08-30T05:09:11;18.10;;;11.12;;
47760;SDS011;33524;55.434;38.520;2023-08-30T05:11:40;17.95;;;10.70;;
47760;SDS011;33524;55.434;38.520;2023-08-30T05:14:08;17.33;;;11.90;;
47760;SDS011;33524;55.434;38.520;2023-08-30T05:16:40;20.15;;;13.25;;
47760;SDS011;33524;55.434;38.520;2023-08-30T05:19:08;19.65;;;11.32;;
47760;SDS011;33524;55.434;38.520;2023-08-30T05:21:36;16.50;;;10.60;;
47760;SDS011;33524;55.434;38.520;2023-08-30T05:24:05;17.12;;;10.27;;
47760;SDS011;33524;55.434;38.520;2023-08-30T05:26:34;16.42;;;10.93;;
47760;SDS011;33524;55.434;38.520;2023-08-30T05:29:03;13.23;;;9.02;;
47760;SDS011;33524;55.434;38.520;2023-08-30T05:31:34;16.33;;;10.45;;
47760;SDS011;33524;55.434;38.520;2023-08-30T05:34:03;17.25;;;10.10;;
47760;SDS011;33524;55.434;38.520;2023-08-30T05:36:39;17.95;;;10.60;;
47760;SDS011;33524;55.434;38.520;2023-08-30T05:39:08;17.48;;;10.45;;
47760;SDS011;33524;55.434;38.520;2023-08-30T05:41:37;19.48;;;10.77;;
47760;SDS011;33524;55.434;38.520;2023-08-30T05:44:05;16.42;;;9.35;;
47760;SDS011;33524;55.434;38.520;2023-08-30T05:46:34;18.85;;;10.13;;
47760;SDS011;33524;55.434;38.520;2023-08-30T05:49:03;15.05;;;9.32;;
47760;SDS011;33524;55.434;38.520;2023-08-30T05:51:31;11.75;;;8.63;;
47760;SDS011;33524;55.434;38.520;2023-08-30T05:53:59;13.82;;;8.35;;
47760;SDS011;33524;55.434;38.520;2023-08-30T05:56:28;13.00;;;7.95;;
47760;SDS011;33524;55.434;38.520;2023-08-30T05:58:56;10.02;;;6.68;;
47760;SDS011;33524;55.434;38.520;2023-08-30T06:01:24;10.90;;;7.97;;
47760;SDS011;33524;55.434;38.520;2023-08-30T06:03:53;12.55;;;8.68;;
47760;SDS011;33524;55.434;38.520;2023-08-30T06:06:22;12.20;;;8.00;;
47760;SDS011;33524;55.434;38.520;2023-08-30T06:08:50;14.63;;;9.18;;
47760;SDS011;33524;55.434;38.520;2023-08-30T06:11:18;14.68;;;8.60;;
47760;SDS011;33524;55.434;38.520;2023-08-30T06:13:46;13.62;;;8.38;;
47760;SDS011;33524;55.434;38.520;2023-08-30T06:16:14;10.77;;;7.65;;
47760;SDS011;33524;55.434;38.520;2023-08-30T06:18:42;11.65;;;8.52;;
47760;SDS011;33524;55.434;38.520;2023-08-30T06:21:10;11.68;;;8.10;;
47760;SDS011;33524;55.434;38.520;2023-08-30T06:23:38;13.48;;;9.07;;
47760;SDS011;33524;55.434;38.520;2023-08-30T06:26:07;11.18;;;7.85;;
47760;SDS011;33524;55.434;38.520;2023-08-30T06:28:35;12.20;;;8.15;;
47760;SDS011;33524;55.434;38.520;2023-08-30T06:31:04;12.02;;;8.85;;
47760;SDS011;33524;55.434;38.520;2023-08-30T06:33:33;9.80;;;7.47;;
47760;SDS011;33524;55.434;38.520;2023-08-30T06:36:01;10.82;;;7.65;;
47760;SDS011;33524;55.434;38.520;2023-08-30T06:38:29;11.40;;;8.35;;
47760;SDS011;33524;55.434;38.520;2023-08-30T06:40:58;13.90;;;7.25;;
47760;SDS011;33524;55.434;38.520;2023-08-30T06:43:26;10.85;;;7.40;;
47760;SDS011;33524;55.434;38.520;2023-08-30T06:45:57;10.73;;;7.00;;
47760;SDS011;33524;55.434;38.520;2023-08-30T06:48:26;10.23;;;7.10;;
47760;SDS011;33524;55.434;38.520;2023-08-30T06:50:58;10.68;;;6.80;;
47760;SDS011;33524;55.434;38.520;2023-08-30T06:53:26;8.80;;;6.28;;
47760;SDS011;33524;55.434;38.520;2023-08-30T06:56:01;8.38;;;5.70;;
47760;SDS011;33524;55.434;38.520;2023-08-30T06:58:29;8.23;;;4.80;;
47760;SDS011;33524;55.434;38.520;2023-08-30T07:00:57;11.02;;;5.65;;
47760;SDS011;33524;55.434;38.520;2023-08-30T07:03:26;8.43;;;4.90;;
47760;SDS011;33524;55.434;38.520;2023-08-30T07:05:54;8.20;;;5.90;;
47760;SDS011;33524;55.434;38.520;2023-08-30T07:08:22;10.10;;;6.07;;
47760;SDS011;33524;55.434;38.520;2023-08-30T07:10:51;7.97;;;4.82;;
47760;SDS011;33524;55.434;38.520;2023-08-30T07:13:20;7.57;;;5.35;;
47760;SDS011;33524;55.434;38.520;2023-08-30T07:15:48;7.10;;;5.12;;
47760;SDS011;33524;55.434;38.520;2023-08-30T07:18:16;7.57;;;5.20;;
47760;SDS011;33524;55.434;38.520;2023-08-30T07:20:44;6.93;;;5.05;;
47760;SDS011;33524;55.434;38.520;2023-08-30T07:23:12;9.48;;;6.22;;
47760;SDS011;33524;55.434;38.520;2023-08-30T07:25:40;8.25;;;6.25;;
47760;SDS011;33524;55.434;38.520;2023-08-30T07:28:10;7.50;;;5.65;;
47760;SDS011;33524;55.434;38.520;2023-08-30T07:30:38;8.85;;;6.47;;
47760;SDS011;33524;55.434;38.520;2023-08-30T07:33:06;11.00;;;5.95;;
47760;SDS011;33524;55.434;38.520;2023-08-30T07:35:35;9.50;;;5.53;;
47760;SDS011;33524;55.434;38.520;2023-08-30T07:38:03;7.22;;;5.37;;
47760;SDS011;33524;55.434;38.520;2023-08-30T07:40:31;7.22;;;5.62;;
47760;SDS011;33524;55.434;38.520;2023-08-30T07:42:59;7.10;;;3.85;;
47760;SDS011;33524;55.434;38.520;2023-08-30T07:45:27;6.60;;;5.28;;
47760;SDS011;33524;55.434;38.520;2023-08-30T07:47:55;7.60;;;5.80;;
47760;SDS011;33524;55.434;38.520;2023-08-30T07:50:23;5.95;;;3.55;;
47760;SDS011;33524;55.434;38.520;2023-08-30T07:52:52;6.85;;;5.03;;
47760;SDS011;33524;55.434;38.520;2023-08-30T07:55:20;7.18;;;5.57;;
47760;SDS011;33524;55.434;38.520;2023-08-30T07:57:55;7.85;;;5.10;;
47760;SDS011;33524;55.434;38.520;2023-08-30T08:00:32;6.47;;;4.85;;
47760;SDS011;33524;55.434;38.520;2023-08-30T08:03:01;6.28;;;4.65;;
47760;SDS011;33524;55.434;38.520;2023-08-30T08:05:35;5.87;;;4.60;;
47760;SDS011;33524;55.434;38.520;2023-08-30T08:08:06;6.00;;;4.00;;
47760;SDS011;33524;55.434;38.520;2023-08-30T08:10:34;7.37;;;4.93;;
47760;SDS011;33524;55.434;38.520;2023-08-30T08:13:02;7.05;;;4.57;;
47760;SDS011;33524;55.434;38.520;2023-08-30T08:15:34;6.37;;;5.32;;
47760;SDS011;33524;55.434;38.520;2023-08-30T08:18:02;6.30;;;5.10;;
47760;SDS011;33524;55.434;38.520;2023-08-30T08:20:31;6.95;;;4.85;;
47760;SDS011;33524;55.434;38.520;2023-08-30T08:23:00;8.77;;;5.20;;
47760;SDS011;33524;55.434;38.520;2023-08-30T08:25:29;6.30;;;4.75;;
47760;SDS011;33524;55.434;38.520;2023-08-30T08:27:57;4.68;;;3.83;;
47760;SDS011;33524;55.434;38.520;2023-08-30T08:30:26;7.35;;;5.25;;
47760;SDS011;33524;55.434;38.520;2023-08-30T08:32:54;5.47;;;4.30;;
47760;SDS011;33524;55.434;38.520;2023-08-30T08:35:22;6.82;;;4.78;;
47760;SDS011;33524;55.434;38.520;2023-08-30T08:37:51;6.43;;;4.65;;
47760;SDS011;33524;55.434;38.520;2023-08-30T08:40:19;5.45;;;3.75;;
47760;SDS011;33524;55.434;38.520;2023-08-30T08:43:06;5.75;;;3.28;;
47760;SDS011;33524;55.434;38.520;2023-08-30T08:45:42;5.05;;;3.72;;
47760;SDS011;33524;55.434;38.520;2023-08-30T08:48:14;8.32;;;4.45;;
47760;SDS011;33524;55.434;38.520;2023-08-30T08:50:43;7.72;;;4.22;;
47760;SDS011;33524;55.434;38.520;2023-08-30T08:53:22;8.73;;;5.20;;
47760;SDS011;33524;55.434;38.520;2023-08-30T08:55:51;8.60;;;5.25;;
47760;SDS011;33524;55.434;38.520;2023-08-30T08:58:31;7.65;;;4.87;;
47760;SDS011;33524;55.434;38.520;2023-08-30T09:01:04;6.90;;;4.40;;
47760;SDS011;33524;55.434;38.520;2023-08-30T09:03:44;6.30;;;4.32;;
47760;SDS011;33524;55.434;38.520;2023-08-30T09:06:13;7.45;;;4.85;;
47760;SDS011;33524;55.434;38.520;2023-08-30T09:08:43;7.80;;;5.30;;
47760;SDS011;33524;55.434;38.520;2023-08-30T09:11:11;7.60;;;4.95;;
47760;SDS011;33524;55.434;38.520;2023-08-30T09:13:40;7.12;;;5.07;;
47760;SDS011;33524;55.434;38.520;2023-08-30T09:16:12;7.63;;;4.83;;
47760;SDS011;33524;55.434;38.520;2023-08-30T09:18:42;7.57;;;4.65;;
47760;SDS011;33524;55.434;38.520;2023-08-30T09:21:23;6.62;;;4.05;;
47760;SDS011;33524;55.434;38.520;2023-08-30T09:24:04;7.30;;;4.22;;
47760;SDS011;33524;55.434;38.520;2023-08-30T09:29:05;6.05;;;4.43;;
47760;SDS011;33524;55.434;38.520;2023-08-30T09:31:37;7.85;;;3.80;;
47760;SDS011;33524;55.434;38.520;2023-08-30T09:34:12;4.87;;;3.60;;
47760;SDS011;33524;55.434;38.520;2023-08-30T09:36:42;5.85;;;3.28;;
47760;SDS011;33524;55.434;38.520;2023-08-30T09:39:13;4.97;;;3.70;;
47760;SDS011;33524;55.434;38.520;2023-08-30T09:41:49;5.20;;;3.90;;
47760;SDS011;33524;55.434;38.520;2023-08-30T09:44:19;5.62;;;3.25;;
47760;SDS011;33524;55.434;38.520;2023-08-30T09:46:55;4.53;;;3.30;;
47760;SDS011;33524;55.434;38.520;2023-08-30T09:49:24;4.05;;;3.15;;
47760;SDS011;33524;55.434;38.520;2023-08-30T09:51:54;3.58;;;2.55;;
47760;SDS011;33524;55.434;38.520;2023-08-30T09:54:23;5.68;;;3.22;;
47760;SDS011;33524;55.434;38.520;2023-08-30T09:56:55;5.47;;;4.20;;
47760;SDS011;33524;55.434;38.520;2023-08-30T09:59:30;4.93;;;3.58;;
47760;SDS011;33524;55.434;38.520;2023-08-30T10:01:59;5.35;;;3.67;;
47760;SDS011;33524;55.434;38.520;2023-08-30T10:04:29;3.55;;;2.42;;
47760;SDS011;33524;55.434;38.520;2023-08-30T10:06:59;4.90;;;3.12;;
47760;SDS011;33524;55.434;38.520;2023-08-30T10:09:28;5.72;;;3.80;;
47760;SDS011;33524;55.434;38.520;2023-08-30T10:11:58;5.75;;;4.00;;
47760;SDS011;33524;55.434;38.520;2023-08-30T10:14:28;6.25;;;3.97;;
47760;SDS011;33524;55.434;38.520;2023-08-30T10:17:01;5.72;;;3.65;;
47760;SDS011;33524;55.434;38.520;2023-08-30T10:19:33;4.68;;;3.70;;
47760;SDS011;33524;55.434;38.520;2023-08-30T10:22:02;6.00;;;2.55;;
47760;SDS011;33524;55.434;38.520;2023-08-30T10:24:36;6.78;;;3.58;;
47760;SDS011;33524;55.434;38.520;2023-08-30T10:27:41;6.75;;;3.80;;
47760;SDS011;33524;55.434;38.520;2023-08-30T10:30:15;4.37;;;3.40;;
47760;SDS011;33524;55.434;38.520;2023-08-30T10:32:45;6.60;;;3.62;;
47760;SDS011;33524;55.434;38.520;2023-08-30T10:35:15;7.50;;;3.70;;
47760;SDS011;33524;55.434;38.520;2023-08-30T10:37:55;5.50;;;3.80;;
47760;SDS011;33524;55.434;38.520;2023-08-30T10:40:30;4.07;;;3.00;;
47760;SDS011;33524;55.434;38.520;2023-08-30T10:43:02;4.60;;;3.58;;
47760;SDS011;33524;55.434;38.520;2023-08-30T10:45:34;6.37;;;3.22;;
47760;SDS011;33524;55.434;38.520;2023-08-30T10:48:06;5.47;;;3.00;;
47760;SDS011;33524;55.434;38.520;2023-08-30T10:50:35;3.70;;;2.55;;
47760;SDS011;33524;55.434;38.520;2023-08-30T10:53:04;4.68;;;2.80;;
47760;SDS011;33524;55.434;38.520;2023-08-30T10:56:02;6.32;;;4.00;;
47760;SDS011;33524;55.434;38.520;2023-08-30T10:58:38;5.62;;;3.87;;
47760;SDS011;33524;55.434;38.520;2023-08-30T11:01:12;6.95;;;4.15;;
47760;SDS011;33524;55.434;38.520;2023-08-30T11:04:01;5.93;;;3.90;;
47760;SDS011;33524;55.434;38.520;2023-08-30T11:06:47;5.00;;;3.50;;
47760;SDS011;33524;55.434;38.520;2023-08-30T11:09:21;4.87;;;3.50;;
47760;SDS011;33524;55.434;38.520;2023-08-30T11:11:50;5.62;;;3.83;;
47760;SDS011;33524;55.434;38.520;2023-08-30T11:14:19;6.22;;;4.12;;
47760;SDS011;33524;55.434;38.520;2023-08-30T11:16:47;6.53;;;3.62;;
47760;SDS011;33524;55.434;38.520;2023-08-30T11:19:16;5.62;;;3.50;;
47760;SDS011;33524;55.434;38.520;2023-08-30T11:21:51;4.43;;;3.17;;
47760;SDS011;33524;55.434;38.520;2023-08-30T11:24:20;5.60;;;3.35;;
47760;SDS011;33524;55.434;38.520;2023-08-30T11:26:52;5.35;;;3.28;;
47760;SDS011;33524;55.434;38.520;2023-08-30T11:29:21;4.28;;;2.72;;
47760;SDS011;33524;55.434;38.520;2023-08-30T11:31:49;4.43;;;3.17;;
47760;SDS011;33524;55.434;38.520;2023-08-30T11:34:19;4.57;;;3.30;;
47760;SDS011;33524;55.434;38.520;2023-08-30T11:36:50;5.47;;;3.20;;
47760;SDS011;33524;55.434;38.520;2023-08-30T11:39:18;4.85;;;3.20;;
47760;SDS011;33524;55.434;38.520;2023-08-30T11:41:48;4.82;;;2.97;;
47760;SDS011;33524;55.434;38.520;2023-08-30T11:44:22;4.47;;;2.60;;
47760;SDS011;33524;55.434;38.520;2023-08-30T11:47:01;3.70;;;2.47;;
47760;SDS011;33524;55.434;38.520;2023-08-30T11:49:29;4.90;;;2.25;;
47760;SDS011;33524;55.434;38.520;2023-08-30T11:51:58;2.03;;;1.83;;
47760;SDS011;33524;55.434;38.520;2023-08-30T11:54:27;3.85;;;2.62;;
47760;SDS011;33524;55.434;38.520;2023-08-30T11:56:56;2.80;;;2.22;;
47760;SDS011;33524;55.434;38.520;2023-08-30T11:59:24;4.35;;;2.70;;
47760;SDS011;33524;55.434;38.520;2023-08-30T12:01:52;4.70;;;2.10;;
47760;SDS011;33524;55.434;38.520;2023-08-30T12:04:21;3.58;;;2.53;;
47760;SDS011;33524;55.434;38.520;2023-08-30T12:06:52;4.37;;;2.28;;
47760;SDS011;33524;55.434;38.520;2023-08-30T12:09:23;3.55;;;1.98;;
47760;SDS011;33524;55.434;38.520;2023-08-30T12:12:06;3.37;;;1.95;;
47760;SDS011;33524;55.434;38.520;2023-08-30T12:14:37;4.07;;;2.15;;
47760;SDS011;33524;55.434;38.520;2023-08-30T12:17:08;2.40;;;1.70;;
47760;SDS011;33524;55.434;38.520;2023-08-30T12:19:40;4.20;;;1.85;;
47760;SDS011;33524;55.434;38.520;2023-08-30T12:22:08;3.35;;;1.70;;
47760;SDS011;33524;55.434;38.520;2023-08-30T12:24:40;3.03;;;1.80;;
47760;SDS011;33524;55.434;38.520;2023-08-30T12:27:10;3.40;;;1.60;;
47760;SDS011;33524;55.434;38.520;2023-08-30T12:29:38;1.87;;;1.40;;
47760;SDS011;33524;55.434;38.520;2023-08-30T12:32:07;3.20;;;1.48;;
47760;SDS011;33524;55.434;38.520;2023-08-30T12:34:36;2.90;;;1.65;;
47760;SDS011;33524;55.434;38.520;2023-08-30T12:37:06;3.30;;;1.83;;
47760;SDS011;33524;55.434;38.520;2023-08-30T12:39:34;3.12;;;1.80;;
47760;SDS011;33524;55.434;38.520;2023-08-30T12:42:02;3.30;;;2.10;;
47760;SDS011;33524;55.434;38.520;2023-08-30T12:44:31;3.15;;;2.03;;
47760;SDS011;33524;55.434;38.520;2023-08-30T12:46:59;3.92;;;2.17;;
47760;SDS011;33524;55.434;38.520;2023-08-30T12:49:27;3.03;;;2.05;;
47760;SDS011;33524;55.434;38.520;2023-08-30T12:51:55;5.07;;;1.70;;
47760;SDS011;33524;55.434;38.520;2023-08-30T12:54:23;3.37;;;1.98;;
47760;SDS011;33524;55.434;38.520;2023-08-30T12:56:52;4.82;;;2.45;;
47760;SDS011;33524;55.434;38.520;2023-08-30T12:59:20;2.47;;;1.80;;
47760;SDS011;33524;55.434;38.520;2023-08-30T13:01:48;3.37;;;2.12;;
47760;SDS011;33524;55.434;38.520;2023-08-30T13:04:16;3.25;;;2.05;;
47760;SDS011;33524;55.434;38.520;2023-08-30T13:06:44;2.33;;;1.70;;
47760;SDS011;33524;55.434;38.520;2023-08-30T13:09:13;2.53;;;1.90;;
47760;SDS011;33524;55.434;38.520;2023-08-30T13:11:41;2.35;;;1.70;;
47760;SDS011;33524;55.434;38.520;2023-08-30T13:14:09;3.95;;;2.10;;
47760;SDS011;33524;55.434;38.520;2023-08-30T13:16:38;4.60;;;2.17;;
47760;SDS011;33524;55.434;38.520;2023-08-30T13:19:07;2.92;;;1.90;;
47760;SDS011;33524;55.434;38.520;2023-08-30T13:21:35;3.35;;;2.10;;
47760;SDS011;33524;55.434;38.520;2023-08-30T13:24:09;3.05;;;1.60;;
47760;SDS011;33524;55.434;38.520;2023-08-30T13:26:37;2.87;;;1.83;;
47760;SDS011;33524;55.434;38.520;2023-08-30T13:29:05;3.60;;;2.00;;
47760;SDS011;33524;55.434;38.520;2023-08-30T13:31:33;3.12;;;2.10;;
47760;SDS011;33524;55.434;38.520;2023-08-30T13:34:01;3.45;;;2.58;;
47760;SDS011;33524;55.434;38.520;2023-08-30T13:36:30;4.32;;;2.83;;
47760;SDS011;33524;55.434;38.520;2023-08-30T13:38:59;2.60;;;1.92;;
47760;SDS011;33524;55.434;38.520;2023-08-30T13:41:28;3.05;;;1.98;;
47760;SDS011;33524;55.434;38.520;2023-08-30T13:43:56;2.75;;;1.80;;
47760;SDS011;33524;55.434;38.520;2023-08-30T13:46:30;4.80;;;2.10;;
47760;SDS011;33524;55.434;38.520;2023-08-30T13:48:58;2.62;;;2.00;;
47760;SDS011;33524;55.434;38.520;2023-08-30T13:51:27;3.20;;;1.92;;
47760;SDS011;33524;55.434;38.520;2023-08-30T13:53:56;5.00;;;2.30;;
47760;SDS011;33524;55.434;38.520;2023-08-30T13:56:27;3.75;;;2.25;;
47760;SDS011;33524;55.434;38.520;2023-08-30T13:58:57;2.92;;;2.03;;
47760;SDS011;33524;55.434;38.520;2023-08-30T14:01:26;3.50;;;2.33;;
47760;SDS011;33524;55.434;38.520;2023-08-30T14:03:55;2.42;;;1.98;;
47760;SDS011;33524;55.434;38.520;2023-08-30T14:06:23;3.45;;;2.10;;
47760;SDS011;33524;55.434;38.520;2023-08-30T14:08:51;2.40;;;1.80;;
47760;SDS011;33524;55.434;38.520;2023-08-30T14:11:19;2.35;;;1.75;;
47760;SDS011;33524;55.434;38.520;2023-08-30T14:13:47;3.72;;;2.33;;
47760;SDS011;33524;55.434;38.520;2023-08-30T14:16:16;3.20;;;2.08;;
47760;SDS011;33524;55.434;38.520;2023-08-30T14:18:44;2.97;;;1.90;;
47760;SDS011;33524;55.434;38.520;2023-08-30T14:21:13;3.08;;;2.10;;
47760;SDS011;33524;55.434;38.520;2023-08-30T14:23:41;2.40;;;1.90;;
47760;SDS011;33524;55.434;38.520;2023-08-30T14:26:10;2.92;;;1.70;;
47760;SDS011;33524;55.434;38.520;2023-08-30T14:28:41;3.12;;;1.62;;
47760;SDS011;33524;55.434;38.520;2023-08-30T14:31:09;2.72;;;1.90;;
47760;SDS011;33524;55.434;38.520;2023-08-30T14:33:43;4.18;;;2.65;;
47760;SDS011;33524;55.434;38.520;2023-08-30T14:36:15;3.30;;;2.30;;
47760;SDS011;33524;55.434;38.520;2023-08-30T14:38:44;4.28;;;3.30;;
47760;SDS011;33524;55.434;38.520;2023-08-30T14:41:12;5.72;;;4.12;;
47760;SDS011;33524;55.434;38.520;2023-08-30T14:43:42;3.45;;;2.30;;
47760;SDS011;33524;55.434;38.520;2023-08-30T14:46:10;3.70;;;2.55;;
47760;SDS011;33524;55.434;38.520;2023-08-30T14:48:46;3.42;;;2.20;;